createdAt,value
2018-07-15T00:00:50.869Z,24.34
2018-07-15T00:01:50.893Z,24.19
2018-07-15T00:02:50.925Z,24.23
2018-07-15T00:03:50.973Z,24.31
2018-07-15T00:04:50.988Z,24.20
2018-07-15T00:05:51.007Z,24.16
2018-07-15T00:06:51.976Z,24.26
2018-07-15T00:07:51.054Z,24.22
2018-07-15T00:08:51.082Z,24.19
2018-07-15T00:09:51.103Z,24.31
2018-07-15T00:10:51.145Z,24.13
2018-07-15T00:11:51.160Z,24.02
2018-07-15T00:12:51.182Z,24.17
2018-07-15T00:13:51.212Z,24.12
2018-07-15T00:14:51.252Z,24.20
2018-07-15T00:15:51.269Z,24.29
2018-07-15T00:16:51.979Z,24.37
2018-07-15T00:17:51.318Z,24.17
2018-07-15T00:18:51.343Z,24.20
2018-07-15T00:19:51.371Z,24.20
2018-07-15T00:20:51.400Z,24.13
2018-07-15T00:21:51.419Z,24.14
2018-07-15T00:22:51.450Z,24.17
2018-07-15T00:23:51.463Z,24.17
2018-07-15T00:24:51.495Z,24.13
2018-07-15T00:25:51.527Z,24.08
2018-07-15T00:26:52.486Z,24.01
2018-07-15T00:27:51.579Z,24.10
2018-07-15T00:28:51.602Z,23.92
2018-07-15T00:29:51.639Z,23.90
2018-07-15T00:30:51.653Z,24.00
2018-07-15T00:31:51.676Z,23.86
2018-07-15T00:32:51.703Z,24.02
2018-07-15T00:33:51.727Z,23.95
2018-07-15T00:34:51.759Z,23.92
2018-07-15T00:35:51.788Z,23.89
2018-07-15T00:36:51.808Z,23.94
2018-07-15T00:37:51.832Z,23.83
2018-07-15T00:38:51.856Z,23.71
2018-07-15T00:39:51.881Z,23.72
2018-07-15T00:40:52.491Z,23.72
2018-07-15T00:41:51.937Z,23.85
2018-07-15T00:42:51.958Z,23.79
2018-07-15T00:43:51.996Z,23.95
2018-07-15T00:44:52.010Z,23.89
2018-07-15T00:45:52.035Z,23.77
2018-07-15T00:46:52.055Z,23.89
2018-07-15T00:47:52.085Z,23.80
2018-07-15T00:48:52.107Z,23.95
2018-07-15T00:49:52.136Z,23.86
2018-07-15T00:50:52.177Z,23.86
2018-07-15T00:51:52.195Z,23.60
2018-07-15T00:52:52.215Z,23.62
2018-07-15T00:53:52.241Z,23.65
2018-07-15T00:54:52.267Z,23.58
2018-07-15T00:55:52.286Z,23.65
2018-07-15T00:56:52.318Z,23.72
2018-07-15T00:57:52.351Z,23.75
2018-07-15T00:58:52.372Z,23.61
2018-07-15T00:59:52.393Z,23.49
2018-07-15T01:00:52.422Z,23.70
2018-07-15T01:01:52.441Z,23.68
2018-07-15T01:02:52.475Z,23.65
2018-07-15T01:03:52.496Z,23.60
2018-07-15T01:04:52.515Z,23.29
2018-07-15T01:05:52.554Z,23.47
2018-07-15T01:06:52.572Z,23.49
2018-07-15T01:08:52.620Z,23.70
2018-07-15T01:09:52.649Z,23.43
2018-07-15T01:10:52.671Z,23.58
2018-07-15T01:11:52.697Z,23.58
2018-07-15T01:12:52.727Z,23.55
2018-07-15T01:13:52.751Z,23.49
2018-07-15T01:14:52.774Z,23.31
2018-07-15T01:15:52.801Z,23.52
2018-07-15T01:16:52.819Z,23.60
2018-07-15T01:17:52.851Z,23.52
2018-07-15T01:18:52.882Z,23.62
2018-07-15T01:19:52.901Z,23.70
2018-07-15T01:20:53.512Z,23.60
2018-07-15T01:21:52.954Z,23.42
2018-07-15T01:22:52.976Z,23.60
2018-07-15T01:23:53.006Z,23.46
2018-07-15T01:24:53.044Z,23.47
2018-07-15T01:25:53.053Z,23.42
2018-07-15T01:26:53.081Z,23.29
2018-07-15T01:27:53.103Z,23.27
2018-07-15T01:28:53.129Z,23.31
2018-07-15T01:29:53.156Z,23.27
2018-07-15T01:30:53.184Z,23.45
2018-07-15T01:31:53.205Z,23.43
2018-07-15T01:32:53.238Z,23.38
2018-07-15T01:33:53.253Z,23.47
2018-07-15T01:34:53.284Z,23.29
2018-07-15T01:35:53.310Z,23.38
2018-07-15T01:36:53.326Z,23.27
2018-07-15T01:37:53.353Z,23.14
2018-07-15T01:38:53.386Z,23.24
2018-07-15T01:39:53.414Z,22.97
2018-07-15T01:40:53.435Z,23.20
2018-07-15T01:41:53.464Z,23.35
2018-07-15T01:42:53.486Z,23.24
2018-07-15T01:43:53.507Z,23.29
2018-07-15T01:44:53.529Z,23.24
2018-07-15T01:45:53.554Z,23.26
2018-07-15T01:46:53.588Z,23.14
2018-07-15T01:47:53.606Z,23.22
2018-07-15T01:48:53.635Z,23.20
2018-07-15T01:49:53.655Z,23.19
2018-07-15T01:50:53.701Z,23.17
2018-07-15T01:51:53.711Z,23.09
2018-07-15T01:52:53.732Z,22.99
2018-07-15T01:53:53.764Z,23.02
2018-07-15T01:54:53.781Z,22.97
2018-07-15T01:55:53.809Z,23.02
2018-07-15T01:56:53.838Z,22.86
2018-07-15T01:57:53.859Z,22.68
2018-07-15T01:58:53.887Z,22.80
2018-07-15T01:59:53.900Z,22.86
2018-07-15T02:01:53.968Z,23.11
2018-07-15T02:02:53.985Z,23.01
2018-07-15T02:03:54.005Z,22.87
2018-07-15T02:04:54.035Z,22.93
2018-07-15T02:05:54.059Z,22.78
2018-07-15T02:06:54.087Z,22.90
2018-07-15T02:07:54.108Z,22.83
2018-07-15T02:08:54.134Z,22.80
2018-07-15T02:09:54.169Z,22.80
2018-07-15T02:10:54.194Z,22.87
2018-07-15T02:11:54.223Z,22.93
2018-07-15T02:12:54.236Z,22.86
2018-07-15T02:13:54.269Z,22.90
2018-07-15T02:14:54.290Z,22.86
2018-07-15T02:15:54.316Z,23.05
2018-07-15T02:16:54.335Z,22.78
2018-07-15T02:17:54.360Z,22.77
2018-07-15T02:18:54.401Z,22.80
2018-07-15T02:19:54.423Z,22.77
2018-07-15T02:20:54.431Z,22.82
2018-07-15T02:21:54.458Z,22.74
2018-07-15T02:22:54.483Z,22.56
2018-07-15T02:23:54.507Z,22.75
2018-07-15T02:24:54.545Z,22.71
2018-07-15T02:25:54.561Z,22.74
2018-07-15T02:26:54.592Z,22.78
2018-07-15T02:27:54.606Z,22.92
2018-07-15T02:28:54.629Z,22.89
2018-07-15T02:29:54.660Z,22.84
2018-07-15T02:30:54.691Z,22.84
2018-07-15T02:31:54.719Z,22.80
2018-07-15T02:32:54.738Z,22.47
2018-07-15T02:33:54.754Z,22.64
2018-07-15T02:34:54.779Z,22.83
2018-07-15T02:35:54.805Z,22.72
2018-07-15T02:36:54.844Z,22.74
2018-07-15T02:37:54.964Z,22.62
2018-07-15T02:38:54.881Z,22.64
2018-07-15T02:39:54.903Z,22.46
2018-07-15T02:40:54.930Z,22.67
2018-07-15T02:41:54.959Z,22.71
2018-07-15T02:42:54.972Z,22.69
2018-07-15T02:43:55.028Z,22.80
2018-07-15T02:44:55.028Z,22.77
2018-07-15T02:45:55.045Z,22.71
2018-07-15T02:46:55.080Z,22.54
2018-07-15T02:47:55.096Z,22.82
2018-07-15T02:48:55.124Z,22.75
2018-07-15T02:49:55.148Z,22.64
2018-07-15T02:50:55.173Z,22.64
2018-07-15T02:51:55.192Z,22.78
2018-07-15T02:52:55.229Z,22.74
2018-07-15T02:53:55.247Z,22.56
2018-07-15T02:54:55.274Z,22.64
2018-07-15T02:55:55.303Z,22.47
2018-07-15T02:56:55.325Z,22.53
2018-07-15T02:57:55.344Z,22.62
2018-07-15T02:58:55.369Z,22.43
2018-07-15T02:59:55.393Z,22.38
2018-07-15T03:00:55.420Z,22.46
2018-07-15T03:01:55.445Z,22.52
2018-07-15T03:02:55.463Z,22.60
2018-07-15T03:03:55.497Z,22.52
2018-07-15T03:04:55.519Z,22.57
2018-07-15T03:05:55.542Z,22.50
2018-07-15T03:06:55.570Z,22.46
2018-07-15T03:07:55.598Z,22.56
2018-07-15T03:08:55.614Z,22.44
2018-07-15T03:09:55.649Z,22.39
2018-07-15T03:10:55.681Z,22.43
2018-07-15T03:11:55.687Z,22.35
2018-07-15T03:12:55.716Z,22.41
2018-07-15T03:13:55.740Z,22.37
2018-07-15T03:14:55.765Z,22.41
2018-07-15T03:15:55.789Z,22.28
2018-07-15T03:16:55.816Z,22.47
2018-07-15T03:17:55.848Z,22.25
2018-07-15T03:18:55.862Z,22.43
2018-07-15T03:19:55.891Z,22.49
2018-07-15T03:20:55.906Z,22.56
2018-07-15T03:21:55.930Z,22.41
2018-07-15T03:22:55.958Z,22.31
2018-07-15T03:23:55.981Z,22.27
2018-07-15T03:24:56.013Z,22.23
2018-07-15T03:25:56.033Z,22.16
2018-07-15T03:26:56.061Z,22.10
2018-07-15T03:27:56.086Z,22.02
2018-07-15T03:28:56.105Z,22.27
2018-07-15T03:29:56.128Z,22.49
2018-07-15T03:30:56.155Z,22.20
2018-07-15T03:31:56.176Z,22.29
2018-07-15T03:32:56.207Z,22.43
2018-07-15T03:33:56.241Z,22.44
2018-07-15T03:34:56.254Z,22.41
2018-07-15T03:35:56.274Z,22.44
2018-07-15T03:36:56.297Z,22.41
2018-07-15T03:37:56.326Z,22.32
2018-07-15T03:38:56.351Z,22.39
2018-07-15T03:39:56.453Z,22.28
2018-07-15T03:40:56.404Z,22.25
2018-07-15T03:41:56.425Z,22.46
2018-07-15T03:42:56.450Z,22.04
2018-07-15T03:43:56.469Z,22.14
2018-07-15T03:44:56.496Z,22.43
2018-07-15T03:45:56.520Z,22.43
2018-07-15T03:46:56.549Z,22.32
2018-07-15T03:47:56.569Z,22.38
2018-07-15T03:48:56.586Z,22.38
2018-07-15T03:49:56.624Z,22.47
2018-07-15T03:50:56.639Z,22.28
2018-07-15T03:51:56.668Z,22.37
2018-07-15T03:52:56.691Z,22.27
2018-07-15T03:53:56.716Z,22.12
2018-07-15T03:54:56.750Z,21.90
2018-07-15T03:55:56.765Z,21.99
2018-07-15T03:56:56.790Z,22.07
2018-07-15T03:57:56.806Z,22.27
2018-07-15T03:58:56.838Z,22.25
2018-07-15T03:59:56.859Z,22.14
2018-07-15T04:00:56.896Z,22.12
2018-07-15T04:01:56.904Z,22.25
2018-07-15T04:02:56.934Z,22.06
2018-07-15T04:03:56.955Z,22.28
2018-07-15T04:04:56.980Z,22.27
2018-07-15T04:05:57.003Z,22.31
2018-07-15T04:06:57.036Z,22.31
2018-07-15T04:07:57.058Z,22.43
2018-07-15T04:08:57.115Z,22.27
2018-07-15T04:09:57.105Z,22.23
2018-07-15T04:10:57.135Z,22.27
2018-07-15T04:11:57.149Z,22.27
2018-07-15T04:12:57.183Z,22.35
2018-07-15T04:13:57.201Z,22.41
2018-07-15T04:14:57.227Z,22.12
2018-07-15T04:15:57.262Z,22.14
2018-07-15T04:16:57.276Z,22.13
2018-07-15T04:17:57.304Z,22.14
2018-07-15T04:18:57.320Z,22.12
2018-07-15T04:19:57.346Z,22.04
2018-07-15T04:20:57.374Z,21.97
2018-07-15T04:21:57.395Z,22.19
2018-07-15T04:22:57.414Z,21.99
2018-07-15T04:23:57.450Z,22.13
2018-07-15T04:24:57.465Z,22.09
2018-07-15T04:25:57.487Z,22.20
2018-07-15T04:26:57.512Z,22.19
2018-07-15T04:27:57.538Z,22.27
2018-07-15T04:28:57.558Z,22.22
2018-07-15T04:29:57.586Z,22.23
2018-07-15T04:30:57.609Z,22.06
2018-07-15T04:31:57.654Z,22.14
2018-07-15T04:32:57.688Z,22.19
2018-07-15T04:33:57.693Z,22.28
2018-07-15T04:34:57.708Z,22.20
2018-07-15T04:35:57.732Z,22.43
2018-07-15T04:36:57.753Z,22.16
2018-07-15T04:37:57.850Z,22.06
2018-07-15T04:38:57.806Z,22.17
2018-07-15T04:39:57.829Z,22.29
2018-07-15T04:40:57.850Z,22.41
2018-07-15T04:41:57.878Z,22.41
2018-07-15T04:42:57.903Z,22.09
2018-07-15T04:43:57.999Z,22.13
2018-07-15T04:44:57.950Z,22.29
2018-07-15T04:45:57.980Z,22.28
2018-07-15T04:46:57.994Z,22.38
2018-07-15T04:47:58.031Z,22.16
2018-07-15T04:48:58.046Z,22.29
2018-07-15T04:49:58.070Z,22.39
2018-07-15T04:50:58.094Z,22.22
2018-07-15T04:51:58.122Z,22.43
2018-07-15T04:52:58.220Z,22.38
2018-07-15T04:53:58.234Z,22.27
2018-07-15T04:54:58.233Z,22.44
2018-07-15T04:55:58.296Z,22.25
2018-07-15T04:56:58.248Z,22.32
2018-07-15T04:57:58.317Z,22.43
2018-07-15T04:58:58.327Z,22.34
2018-07-15T04:59:58.332Z,21.99
2018-07-15T05:00:58.335Z,22.12
2018-07-15T05:01:58.396Z,22.09
2018-07-15T05:02:58.386Z,22.06
2018-07-15T05:03:58.415Z,21.78
2018-07-15T05:04:58.436Z,21.59
2018-07-15T05:05:58.466Z,21.59
2018-07-15T05:06:58.484Z,21.76
2018-07-15T05:07:58.507Z,22.07
2018-07-15T05:08:58.533Z,21.97
2018-07-15T05:09:58.557Z,22.09
2018-07-15T05:10:58.587Z,21.90
2018-07-15T05:11:58.619Z,22.25
2018-07-15T05:12:58.626Z,22.17
2018-07-15T05:13:58.653Z,22.27
2018-07-15T05:15:58.699Z,22.47
2018-07-15T05:16:58.727Z,22.22
2018-07-15T05:17:58.755Z,22.19
2018-07-15T05:18:58.781Z,22.17
2018-07-15T05:19:58.797Z,22.14
2018-07-15T05:20:58.820Z,22.41
2018-07-15T05:21:58.850Z,22.35
2018-07-15T05:22:58.867Z,22.25
2018-07-15T05:23:58.899Z,22.39
2018-07-15T05:24:58.938Z,22.44
2018-07-15T05:25:58.954Z,22.38
2018-07-15T05:26:58.970Z,22.38
2018-07-15T05:27:58.989Z,22.47
2018-07-15T05:28:59.013Z,22.31
2018-07-15T05:29:59.040Z,22.46
2018-07-15T05:30:59.067Z,22.37
2018-07-15T05:31:59.092Z,22.39
2018-07-15T05:32:59.175Z,22.38
2018-07-15T05:33:59.140Z,22.44
2018-07-15T05:34:59.256Z,22.49
2018-07-15T05:35:59.192Z,22.32
2018-07-15T05:36:59.213Z,22.41
2018-07-15T05:37:59.245Z,22.39
2018-07-15T05:38:59.270Z,22.43
2018-07-15T05:39:59.291Z,22.32
2018-07-15T05:40:59.327Z,22.35
2018-07-15T05:41:59.333Z,22.52
2018-07-15T05:42:59.358Z,22.43
2018-07-15T05:43:59.388Z,22.56
2018-07-15T05:44:59.405Z,22.53
2018-07-15T05:45:59.448Z,22.54
2018-07-15T05:46:59.458Z,22.39
2018-07-15T05:47:59.489Z,22.56
2018-07-15T05:48:59.503Z,22.57
2018-07-15T05:49:59.529Z,22.62
2018-07-15T05:50:59.573Z,22.75
2018-07-15T05:51:59.655Z,22.54
2018-07-15T05:52:59.614Z,22.56
2018-07-15T05:53:59.628Z,22.57
2018-07-15T05:54:59.655Z,22.53
2018-07-15T05:55:59.678Z,22.54
2018-07-15T05:56:59.704Z,22.53
2018-07-15T05:57:59.786Z,22.56
2018-07-15T05:58:59.757Z,22.62
2018-07-15T05:59:59.783Z,22.78
2018-07-15T06:01:59.830Z,22.69
2018-07-15T06:02:59.854Z,22.67
2018-07-15T06:03:59.872Z,22.64
2018-07-15T06:04:59.905Z,22.65
2018-07-15T06:05:59.923Z,22.59
2018-07-15T06:06:59.955Z,22.68
2018-07-15T06:07:59.977Z,22.80
2018-07-15T06:09:00.000Z,22.86
2018-07-15T06:10:00.032Z,22.86
2018-07-15T06:11:00.061Z,22.86
2018-07-15T06:12:00.085Z,22.86
2018-07-15T06:13:00.101Z,22.90
2018-07-15T06:14:00.125Z,22.82
2018-07-15T06:15:00.155Z,22.77
2018-07-15T06:16:00.221Z,22.82
2018-07-15T06:17:00.235Z,22.92
2018-07-15T06:18:00.233Z,22.83
2018-07-15T06:19:00.256Z,22.80
2018-07-15T06:20:00.314Z,22.82
2018-07-15T06:21:00.298Z,22.77
2018-07-15T06:22:00.340Z,22.87
2018-07-15T06:24:00.374Z,22.83
2018-07-15T06:25:00.401Z,23.01
2018-07-15T06:26:00.438Z,23.07
2018-07-15T06:27:00.457Z,22.89
2018-07-15T06:28:00.471Z,23.04
2018-07-15T06:29:00.519Z,23.01
2018-07-15T06:30:00.524Z,23.01
2018-07-15T06:31:00.554Z,22.93
2018-07-15T06:32:00.570Z,22.94
2018-07-15T06:33:00.596Z,22.99
2018-07-15T06:34:00.623Z,22.87
2018-07-15T06:35:00.652Z,22.90
2018-07-15T06:36:00.692Z,23.07
2018-07-15T06:37:00.703Z,23.01
2018-07-15T06:38:00.723Z,23.05
2018-07-15T06:39:00.754Z,22.99
2018-07-15T06:40:00.776Z,22.96
2018-07-15T06:41:00.825Z,22.83
2018-07-15T06:42:00.829Z,22.99
2018-07-15T06:43:00.844Z,23.02
2018-07-15T06:44:00.871Z,23.07
2018-07-15T06:45:00.904Z,23.01
2018-07-15T06:46:00.927Z,22.99
2018-07-15T06:47:00.959Z,23.07
2018-07-15T06:48:00.972Z,23.04
2018-07-15T06:49:01.023Z,23.07
2018-07-15T06:50:01.027Z,23.17
2018-07-15T06:51:01.046Z,23.08
2018-07-15T06:52:01.076Z,23.15
2018-07-15T06:53:01.111Z,23.17
2018-07-15T06:54:01.178Z,23.20
2018-07-15T06:55:01.151Z,23.24
2018-07-15T06:56:01.257Z,23.23
2018-07-15T06:57:01.199Z,23.31
2018-07-15T06:58:01.230Z,23.42
2018-07-15T06:59:01.257Z,23.43
2018-07-15T07:00:01.271Z,23.45
2018-07-15T07:01:01.301Z,23.39
2018-07-15T07:02:01.327Z,23.46
2018-07-15T07:03:01.356Z,23.42
2018-07-15T07:04:01.384Z,23.45
2018-07-15T07:05:01.410Z,23.53
2018-07-15T07:06:01.434Z,23.49
2018-07-15T07:07:01.450Z,23.47
2018-07-15T07:08:01.479Z,23.47
2018-07-15T07:09:01.500Z,23.53
2018-07-15T07:10:01.533Z,23.39
2018-07-15T07:11:01.561Z,23.52
2018-07-15T07:12:01.580Z,23.40
2018-07-15T07:13:01.620Z,23.49
2018-07-15T07:14:01.708Z,23.35
2018-07-15T07:15:01.658Z,23.40
2018-07-15T07:16:01.683Z,23.32
2018-07-15T07:17:01.713Z,23.24
2018-07-15T07:18:01.729Z,23.29
2018-07-15T07:19:01.765Z,23.38
2018-07-15T07:20:01.795Z,23.42
2018-07-15T07:21:01.807Z,23.43
2018-07-15T07:22:01.832Z,23.43
2018-07-15T07:23:01.872Z,23.43
2018-07-15T07:24:01.892Z,23.40
2018-07-15T07:25:01.924Z,23.46
2018-07-15T07:26:01.954Z,23.49
2018-07-15T07:27:01.978Z,23.49
2018-07-15T07:28:01.987Z,23.62
2018-07-15T07:29:02.019Z,23.57
2018-07-15T07:30:02.047Z,23.58
2018-07-15T07:31:02.073Z,23.60
2018-07-15T07:32:02.092Z,23.53
2018-07-15T07:33:02.118Z,23.61
2018-07-15T07:34:02.143Z,23.53
2018-07-15T07:35:02.187Z,23.47
2018-07-15T07:36:02.206Z,23.60
2018-07-15T07:37:02.244Z,23.68
2018-07-15T07:38:02.254Z,23.64
2018-07-15T07:39:02.282Z,23.62
2018-07-15T07:40:02.298Z,23.50
2018-07-15T07:41:02.332Z,23.52
2018-07-15T07:42:02.345Z,23.58
2018-07-15T07:43:02.373Z,23.61
2018-07-15T07:44:02.403Z,23.71
2018-07-15T07:45:02.435Z,23.53
2018-07-15T07:46:02.456Z,23.65
2018-07-15T07:47:02.572Z,23.71
2018-07-15T07:48:02.497Z,23.64
2018-07-15T07:49:02.532Z,23.71
2018-07-15T07:50:02.559Z,23.70
2018-07-15T07:51:02.590Z,23.77
2018-07-15T07:52:02.601Z,23.72
2018-07-15T07:53:02.640Z,23.68
2018-07-15T07:54:02.658Z,23.64
2018-07-15T07:55:02.696Z,23.70
2018-07-15T07:56:02.717Z,23.65
2018-07-15T07:57:02.748Z,23.53
2018-07-15T07:58:02.762Z,23.72
2018-07-15T07:59:02.787Z,23.71
2018-07-15T08:00:02.816Z,23.58
2018-07-15T08:01:02.873Z,23.65
2018-07-15T08:02:02.947Z,23.71
2018-07-15T08:03:02.897Z,23.75
2018-07-15T08:04:02.916Z,23.53
2018-07-15T08:05:02.956Z,23.71
2018-07-15T08:06:02.973Z,23.72
2018-07-15T08:07:02.996Z,23.70
2018-07-15T08:08:03.036Z,23.72
2018-07-15T08:09:03.048Z,23.71
2018-07-15T08:10:03.072Z,23.83
2018-07-15T08:11:03.104Z,23.83
2018-07-15T08:12:03.127Z,23.80
2018-07-15T08:13:03.152Z,23.82
2018-07-15T08:14:03.178Z,23.92
2018-07-15T08:15:03.208Z,23.94
2018-07-15T08:16:03.227Z,23.95
2018-07-15T08:17:03.265Z,24.00
2018-07-15T08:18:03.278Z,23.95
2018-07-15T08:19:03.301Z,24.02
2018-07-15T08:20:03.339Z,24.12
2018-07-15T08:21:03.356Z,24.12
2018-07-15T08:22:03.393Z,24.07
2018-07-15T08:23:03.411Z,23.95
2018-07-15T08:24:03.438Z,24.01
2018-07-15T08:25:03.472Z,24.04
2018-07-15T08:26:03.481Z,24.01
2018-07-15T08:27:03.520Z,24.12
2018-07-15T08:28:03.542Z,24.02
2018-07-15T08:29:03.568Z,24.16
2018-07-15T08:30:03.596Z,24.13
2018-07-15T08:31:03.622Z,24.04
2018-07-15T08:32:03.643Z,24.14
2018-07-15T08:33:03.683Z,24.19
2018-07-15T08:34:03.708Z,24.19
2018-07-15T08:35:03.725Z,24.12
2018-07-15T08:36:03.769Z,24.16
2018-07-15T08:37:03.795Z,24.19
2018-07-15T08:38:03.814Z,24.27
2018-07-15T08:39:03.846Z,24.34
2018-07-15T08:40:03.861Z,24.32
2018-07-15T08:41:03.889Z,24.31
2018-07-15T08:42:03.903Z,24.32
2018-07-15T08:43:03.937Z,24.34
2018-07-15T08:44:03.967Z,24.29
2018-07-15T08:45:03.990Z,24.39
2018-07-15T08:46:04.089Z,24.37
2018-07-15T08:47:04.053Z,24.35
2018-07-15T08:48:04.069Z,24.38
2018-07-15T08:49:04.117Z,24.38
2018-07-15T08:50:04.126Z,24.41
2018-07-15T08:51:04.143Z,24.37
2018-07-15T08:52:04.175Z,24.39
2018-07-15T08:53:04.200Z,24.37
2018-07-15T08:54:04.227Z,24.37
2018-07-15T08:55:04.271Z,24.35
2018-07-15T08:56:04.302Z,24.44
2018-07-15T08:57:04.312Z,24.42
2018-07-15T08:58:04.353Z,24.41
2018-07-15T08:59:04.368Z,24.41
2018-07-15T09:00:04.395Z,24.37
2018-07-15T09:01:04.532Z,24.39
2018-07-15T09:02:04.446Z,24.37
2018-07-15T09:03:04.472Z,24.34
2018-07-15T09:04:04.499Z,24.35
2018-07-15T09:05:04.519Z,24.41
2018-07-15T09:06:04.553Z,24.44
2018-07-15T09:07:04.580Z,24.37
2018-07-15T09:08:04.602Z,24.49
2018-07-15T09:09:04.625Z,24.53
2018-07-15T09:10:04.650Z,24.41
2018-07-15T09:11:04.697Z,24.52
2018-07-15T09:12:04.728Z,24.39
2018-07-15T09:13:04.738Z,24.50
2018-07-15T09:14:04.764Z,24.50
2018-07-15T09:15:04.851Z,24.49
2018-07-15T09:16:04.820Z,24.47
2018-07-15T09:17:04.843Z,24.49
2018-07-15T09:18:04.875Z,24.45
2018-07-15T09:19:04.895Z,24.47
2018-07-15T09:20:04.923Z,24.45
2018-07-15T09:21:04.954Z,24.50
2018-07-15T09:22:04.972Z,24.49
2018-07-15T09:23:05.013Z,24.56
2018-07-15T09:24:05.040Z,24.50
2018-07-15T09:25:05.050Z,24.54
2018-07-15T09:26:05.092Z,24.53
2018-07-15T09:27:05.114Z,24.47
2018-07-15T09:28:05.136Z,24.47
2018-07-15T09:29:05.168Z,24.54
2018-07-15T09:30:05.191Z,24.53
2018-07-15T09:31:05.219Z,24.56
2018-07-15T09:32:05.247Z,24.57
2018-07-15T09:33:05.272Z,24.54
2018-07-15T09:34:05.308Z,24.53
2018-07-15T09:35:05.332Z,24.56
2018-07-15T09:36:05.350Z,24.52
2018-07-15T09:37:05.374Z,24.50
2018-07-15T09:38:05.492Z,24.57
2018-07-15T09:39:05.438Z,24.59
2018-07-15T09:40:05.456Z,24.57
2018-07-15T09:41:05.483Z,24.59
2018-07-15T09:42:05.517Z,24.57
2018-07-15T09:43:05.544Z,24.60
2018-07-15T09:44:05.575Z,24.63
2018-07-15T09:45:05.649Z,24.60
2018-07-15T09:46:05.617Z,24.53
2018-07-15T09:47:05.660Z,24.67
2018-07-15T09:48:05.679Z,24.59
2018-07-15T09:49:05.708Z,24.54
2018-07-15T09:50:05.721Z,24.64
2018-07-15T09:51:05.816Z,24.67
2018-07-15T09:52:05.778Z,24.76
2018-07-15T09:53:05.807Z,24.75
2018-07-15T09:54:05.833Z,24.71
2018-07-15T09:55:05.870Z,24.80
2018-07-15T09:56:05.900Z,24.83
2018-07-15T09:57:05.937Z,24.87
2018-07-15T09:59:05.971Z,24.83
2018-07-15T10:00:05.995Z,24.88
2018-07-15T10:01:06.018Z,24.83
2018-07-15T10:02:06.047Z,24.95
2018-07-15T10:03:06.080Z,24.87
2018-07-15T10:04:06.116Z,24.98
2018-07-15T10:05:06.127Z,24.97
2018-07-15T10:06:06.168Z,25.00
2018-07-15T10:07:06.186Z,25.02
2018-07-15T10:08:06.221Z,25.05
2018-07-15T10:09:06.277Z,25.01
2018-07-15T10:10:06.273Z,25.05
2018-07-15T10:11:06.291Z,25.02
2018-07-15T10:12:06.318Z,25.05
2018-07-15T10:13:06.341Z,25.15
2018-07-15T10:14:06.375Z,25.16
2018-07-15T10:15:06.403Z,25.10
2018-07-15T10:16:06.435Z,25.24
2018-07-15T10:17:06.479Z,25.30
2018-07-15T10:18:06.475Z,25.32
2018-07-15T10:19:06.573Z,25.25
2018-07-15T10:20:06.534Z,25.27
2018-07-15T10:21:06.567Z,25.30
2018-07-15T10:22:06.597Z,25.38
2018-07-15T10:23:06.616Z,25.35
2018-07-15T10:24:06.657Z,25.34
2018-07-15T10:25:06.696Z,25.38
2018-07-15T10:26:06.704Z,25.42
2018-07-15T10:27:06.730Z,25.47
2018-07-15T10:28:06.784Z,25.47
2018-07-15T10:29:06.787Z,25.37
2018-07-15T10:30:06.839Z,25.47
2018-07-15T10:31:06.850Z,25.52
2018-07-15T10:32:06.888Z,25.43
2018-07-15T10:33:06.902Z,25.35
2018-07-15T10:34:06.941Z,25.34
2018-07-15T10:36:06.969Z,25.46
2018-07-15T10:37:07.007Z,25.52
2018-07-15T10:38:07.031Z,25.54
2018-07-15T10:39:07.117Z,25.52
2018-07-15T10:40:07.146Z,25.61
2018-07-15T10:41:07.121Z,25.68
2018-07-15T10:42:07.146Z,25.75
2018-07-15T10:43:07.182Z,25.82
2018-07-15T10:44:07.194Z,25.72
2018-07-15T10:45:07.232Z,25.77
2018-07-15T10:46:07.256Z,25.84
2018-07-15T10:47:07.284Z,25.89
2018-07-15T10:48:07.313Z,25.77
2018-07-15T10:49:07.341Z,25.75
2018-07-15T10:50:07.360Z,25.90
2018-07-15T10:51:07.392Z,25.75
2018-07-15T10:52:07.421Z,25.74
2018-07-15T10:53:07.451Z,25.75
2018-07-15T10:54:07.479Z,25.87
2018-07-15T10:55:07.520Z,25.84
2018-07-15T10:56:07.537Z,25.77
2018-07-15T10:57:07.577Z,25.71
2018-07-15T10:58:07.585Z,25.72
2018-07-15T10:59:07.619Z,25.74
2018-07-15T11:00:07.641Z,25.69
2018-07-15T11:01:07.756Z,25.71
2018-07-15T11:02:07.712Z,25.82
2018-07-15T11:03:07.725Z,25.99
2018-07-15T11:04:07.749Z,26.06
2018-07-15T11:05:07.779Z,25.91
2018-07-15T11:06:07.813Z,25.79
2018-07-15T11:07:07.843Z,25.74
2018-07-15T11:08:07.865Z,25.82
2018-07-15T11:09:07.904Z,25.97
2018-07-15T11:10:07.954Z,25.84
2018-07-15T11:11:07.965Z,25.84
2018-07-15T11:12:07.976Z,25.82
2018-07-15T11:13:08.003Z,25.84
2018-07-15T11:14:08.031Z,25.90
2018-07-15T11:15:08.057Z,25.83
2018-07-15T11:16:08.090Z,25.84
2018-07-15T11:17:08.121Z,25.82
2018-07-15T11:18:08.140Z,25.84
2018-07-15T11:19:08.245Z,25.89
2018-07-15T11:20:08.200Z,25.74
2018-07-15T11:21:08.220Z,25.79
2018-07-15T11:22:08.250Z,25.83
2018-07-15T11:23:08.280Z,25.71
2018-07-15T11:24:08.309Z,25.79
2018-07-15T11:25:08.334Z,25.71
2018-07-15T11:26:08.382Z,25.83
2018-07-15T11:27:08.392Z,25.94
2018-07-15T11:28:08.425Z,25.93
2018-07-15T11:29:08.448Z,25.94
2018-07-15T11:30:08.480Z,25.98
2018-07-15T11:31:08.647Z,25.97
2018-07-15T11:32:08.527Z,26.05
2018-07-15T11:33:08.557Z,26.06
2018-07-15T11:34:08.581Z,26.17
2018-07-15T11:35:08.615Z,26.18
2018-07-15T11:36:08.635Z,26.28
2018-07-15T11:37:08.669Z,26.27
2018-07-15T11:38:08.688Z,26.20
2018-07-15T11:39:08.786Z,26.28
2018-07-15T11:40:08.752Z,26.37
2018-07-15T11:41:08.780Z,26.43
2018-07-15T11:42:08.808Z,26.47
2018-07-15T11:43:08.853Z,26.58
2018-07-15T11:44:08.864Z,26.55
2018-07-15T11:45:08.891Z,26.54
2018-07-15T11:46:08.922Z,26.52
2018-07-15T11:47:08.953Z,26.55
2018-07-15T11:48:09.028Z,26.54
2018-07-15T11:49:09.026Z,26.67
2018-07-15T11:50:09.037Z,26.79
2018-07-15T11:51:09.064Z,26.73
2018-07-15T11:52:09.085Z,26.77
2018-07-15T11:53:09.125Z,26.76
2018-07-15T11:54:09.141Z,26.76
2018-07-15T11:55:09.186Z,26.73
2018-07-15T11:56:09.203Z,26.81
2018-07-15T11:57:09.244Z,26.81
2018-07-15T11:58:09.257Z,26.99
2018-07-15T11:59:09.293Z,26.94
2018-07-15T12:00:09.327Z,27.04
2018-07-15T12:02:09.377Z,27.11
2018-07-15T12:03:09.401Z,27.10
2018-07-15T12:04:09.439Z,27.10
2018-07-15T12:05:09.585Z,27.02
2018-07-15T12:06:09.495Z,27.16
2018-07-15T12:07:09.529Z,27.31
2018-07-15T12:08:09.546Z,27.24
2018-07-15T12:09:09.588Z,27.14
2018-07-15T12:10:09.646Z,27.28
2018-07-15T12:11:09.753Z,27.46
2018-07-15T12:12:09.671Z,27.43
2018-07-15T12:13:09.693Z,27.36
2018-07-15T12:14:09.731Z,27.42
2018-07-15T12:15:09.759Z,27.41
2018-07-15T12:16:09.798Z,27.42
2018-07-15T12:17:09.818Z,27.43
2018-07-15T12:18:09.857Z,27.66
2018-07-15T12:19:09.882Z,27.53
2018-07-15T12:20:09.906Z,27.47
2018-07-15T12:21:09.936Z,27.50
2018-07-15T12:22:09.967Z,27.58
2018-07-15T12:23:10.024Z,27.59
2018-07-15T12:24:10.024Z,27.53
2018-07-15T12:25:10.071Z,27.48
2018-07-15T12:26:10.091Z,27.50
2018-07-15T12:27:10.116Z,27.46
2018-07-15T12:28:10.154Z,27.41
2018-07-15T12:29:10.174Z,27.54
2018-07-15T12:30:10.199Z,27.50
2018-07-15T12:31:10.246Z,27.54
2018-07-15T12:32:10.264Z,27.66
2018-07-15T12:33:10.298Z,27.69
2018-07-15T12:34:10.318Z,27.59
2018-07-15T12:35:10.362Z,27.58
2018-07-15T12:36:10.385Z,27.51
2018-07-15T12:37:10.417Z,27.70
2018-07-15T12:38:10.447Z,27.67
2018-07-15T12:39:10.467Z,27.66
2018-07-15T12:40:10.522Z,27.66
2018-07-15T12:41:10.533Z,27.77
2018-07-15T12:42:10.572Z,27.82
2018-07-15T12:43:10.624Z,27.80
2018-07-15T12:44:10.631Z,28.03
2018-07-15T12:45:10.648Z,28.10
2018-07-15T12:46:10.685Z,28.03
2018-07-15T12:47:10.708Z,27.94
2018-07-15T12:48:10.737Z,27.80
2018-07-15T12:49:10.774Z,27.98
2018-07-15T12:50:10.798Z,27.85
2018-07-15T12:51:10.836Z,27.84
2018-07-15T12:52:10.925Z,27.76
2018-07-15T12:53:10.904Z,27.84
2018-07-15T12:54:10.922Z,28.01
2018-07-15T12:55:10.955Z,27.92
2018-07-15T12:56:10.983Z,28.19
2018-07-15T12:57:11.007Z,28.10
2018-07-15T12:58:11.047Z,28.19
2018-07-15T12:59:11.080Z,28.10
2018-07-15T13:00:11.105Z,28.01
2018-07-15T13:01:11.136Z,27.99